Time;durP1;ratioP1;P1;durP2;ratioP2;P2;SDS_P1;SDS_P2;PMS_P1;PMS_P2;Temp;Humidity;BMP_temperature;BMP_pressure;BME280_temperature;BME280_humidity;BME280_pressure;Samples;Min_cycle;Max_cycle;Signal;HPM_P1;HPM_P2
2022/06/09 00:00:37;;;;;;;2.10;2.00;;;16.40;99.90;;;;;;5030364;28;20491;-53
2022/06/09 00:03:09;;;;;;;2.07;1.97;;;16.50;99.90;;;;;;5022605;28;20972;-53
2022/06/09 00:05:37;;;;;;;4.87;2.10;;;16.50;99.90;;;;;;5029778;28;20498;-52
2022/06/09 00:08:07;;;;;;;3.07;2.57;;;16.60;99.90;;;;;;5030660;28;20459;-53
2022/06/09 00:10:37;;;;;;;7.13;2.23;;;16.60;99.90;;;;;;5029582;28;20502;-53
2022/06/09 00:13:04;;;;;;;2.80;2.40;;;16.60;99.90;;;;;;5026570;28;20915;-53
2022/06/09 00:15:30;;;;;;;2.17;2.07;;;16.70;99.90;;;;;;5030648;28;20579;-52
2022/06/09 00:17:57;;;;;;;2.53;2.33;;;16.80;99.90;;;;;;5031443;28;20562;-54
2022/06/09 00:20:25;;;;;;;3.33;3.10;;;16.80;99.90;;;;;;5023333;28;20455;-54
2022/06/09 00:22:51;;;;;;;3.00;2.70;;;16.90;99.90;;;;;;5026808;28;20573;-54
2022/06/09 00:25:18;;;;;;;4.97;2.67;;;17.00;99.90;;;;;;5029262;28;20459;-53
2022/06/09 00:27:45;;;;;;;6.27;3.13;;;17.10;99.90;;;;;;5030557;28;20463;-51
2022/06/09 00:30:16;;;;;;;2.87;2.47;;;17.10;99.90;;;;;;5028355;28;21101;-53
2022/06/09 00:32:43;;;;;;;4.57;3.10;;;17.20;99.90;;;;;;5028479;28;20458;-53
2022/06/09 00:35:10;;;;;;;2.63;2.53;;;17.20;99.90;;;;;;5029001;28;20554;-53
2022/06/09 00:37:38;;;;;;;3.37;2.70;;;17.20;99.90;;;;;;5028879;28;22406;-52
2022/06/09 00:40:07;;;;;;;3.50;3.20;;;17.20;99.90;;;;;;5029909;28;20470;-54
2022/06/09 00:42:34;;;;;;;3.53;2.63;;;17.30;99.90;;;;;;5029229;28;20558;-52
2022/06/09 00:45:26;;;;;;;2.70;2.60;;;17.30;99.90;;;;;;5027322;28;20905;-54
2022/06/09 00:47:58;;;;;;;2.70;2.50;;;17.30;99.90;;;;;;5024920;28;21006;-54
2022/06/09 00:50:29;;;;;;;17.70;3.60;;;17.30;99.90;;;;;;5028878;28;20478;-52
2022/06/09 00:53:01;;;;;;;3.10;2.63;;;17.30;99.90;;;;;;5023309;28;20559;-53
2022/06/09 00:55:32;;;;;;;3.20;3.00;;;17.40;99.90;;;;;;5030602;28;20534;-52
2022/06/09 00:58:03;;;;;;;2.43;2.23;;;17.40;99.90;;;;;;5029493;28;21046;-51
2022/06/09 01:00:35;;;;;;;2.93;2.70;;;17.40;99.90;;;;;;5029668;28;20969;-52
2022/06/09 01:03:03;;;;;;;3.63;2.50;;;17.40;99.90;;;;;;5029701;28;21078;-53
2022/06/09 01:05:33;;;;;;;4.60;2.77;;;17.40;99.90;;;;;;5027470;28;20561;-53
2022/06/09 01:08:04;;;;;;;2.90;2.60;;;17.30;99.90;;;;;;5029547;28;20581;-51
2022/06/09 01:10:31;;;;;;;8.97;2.97;;;17.40;99.90;;;;;;5025282;28;21045;-53
2022/06/09 01:12:59;;;;;;;4.70;2.60;;;17.30;99.90;;;;;;5028720;28;20490;-52
2022/06/09 01:15:33;;;;;;;3.30;3.07;;;17.30;99.90;;;;;;5021738;28;20562;-52
2022/06/09 01:18:14;;;;;;;6.40;3.27;;;17.40;99.90;;;;;;5028789;28;21268;-52
2022/06/09 01:20:45;;;;;;;3.20;2.90;;;17.40;99.90;;;;;;5021444;28;21007;-50
2022/06/09 01:23:50;;;;;;;3.33;3.07;;;17.40;99.90;;;;;;5028854;28;20577;-52
2022/06/09 01:26:49;;;;;;;2.87;2.77;;;17.40;99.90;;;;;;5027362;28;21028;-51
2022/06/09 01:29:34;;;;;;;3.47;2.80;;;17.40;99.90;;;;;;5027703;28;20463;-52
2022/06/09 01:32:06;;;;;;;3.20;2.90;;;17.40;99.90;;;;;;5025866;28;20564;-53
2022/06/09 01:34:40;;;;;;;3.50;2.80;;;17.40;99.90;;;;;;5020732;28;20467;-52
2022/06/09 01:37:12;;;;;;;3.30;3.10;;;17.40;99.90;;;;;;5026946;28;20479;-54
2022/06/09 01:39:48;;;;;;;3.10;2.83;;;17.40;99.90;;;;;;5028555;28;20505;-54
2022/06/09 01:42:27;;;;;;;2.80;2.70;;;17.40;99.90;;;;;;5027464;28;20516;-51
2022/06/09 01:44:57;;;;;;;3.13;2.93;;;17.40;99.90;;;;;;5026812;28;20514;-53
2022/06/09 01:47:31;;;;;;;2.63;2.43;;;17.50;99.90;;;;;;5028014;28;20554;-53
2022/06/09 01:49:59;;;;;;;12.63;3.10;;;17.40;99.90;;;;;;5020492;28;20549;-54
2022/06/09 01:52:27;;;;;;;2.70;2.60;;;17.40;99.90;;;;;;5027212;28;20467;-51
2022/06/09 01:54:56;;;;;;;3.00;2.80;;;17.40;99.90;;;;;;5030451;28;20517;-54
2022/06/09 01:57:29;;;;;;;4.33;3.07;;;17.40;99.90;;;;;;5030807;28;20518;-51
2022/06/09 02:00:09;;;;;;;6.43;3.10;;;17.30;99.90;;;;;;5023688;28;20459;-52
2022/06/09 02:02:41;;;;;;;3.30;3.10;;;17.30;99.90;;;;;;5026132;28;20454;-52
2022/06/09 02:05:13;;;;;;;2.97;2.77;;;17.30;99.90;;;;;;5026762;28;20486;-52
2022/06/09 02:07:42;;;;;;;3.17;2.90;;;17.30;99.90;;;;;;5028506;28;20595;-52
2022/06/09 02:10:17;;;;;;;2.80;2.60;;;17.30;99.90;;;;;;5029092;28;20517;-54
2022/06/09 02:12:44;;;;;;;2.73;2.53;;;17.30;99.90;;;;;;5027091;28;23173;-54
2022/06/09 02:15:22;;;;;;;3.37;3.17;;;17.20;99.90;;;;;;5028349;28;20928;-52
2022/06/09 02:17:51;;;;;;;2.60;2.50;;;17.30;99.90;;;;;;5059429;22;20529;-59
2022/06/09 02:20:21;;;;;;;2.67;2.47;;;17.30;99.90;;;;;;5047227;28;20494;-58
2022/06/09 02:22:48;;;;;;;2.40;2.30;;;17.30;99.90;;;;;;5043126;28;20924;-57
2022/06/09 02:25:15;;;;;;;2.60;2.37;;;17.30;99.90;;;;;;5052632;28;20890;-57
2022/06/09 02:27:42;;;;;;;2.90;2.27;;;17.20;99.90;;;;;;5042358;28;20520;-57
2022/06/09 02:30:09;;;;;;;2.40;2.30;;;17.20;99.90;;;;;;5042105;28;20472;-57
2022/06/09 02:32:36;;;;;;;4.50;2.23;;;17.20;99.90;;;;;;5050597;28;20487;-57
2022/06/09 02:35:04;;;;;;;2.30;2.20;;;17.20;99.90;;;;;;5052371;28;20488;-57
2022/06/09 02:37:31;;;;;;;2.57;2.47;;;17.20;99.90;;;;;;5050397;28;20543;-57
2022/06/09 02:39:58;;;;;;;2.40;2.30;;;17.20;99.90;;;;;;5050106;28;20553;-57
2022/06/09 02:42:24;;;;;;;3.13;2.60;;;17.20;99.90;;;;;;5047615;28;20497;-58
2022/06/09 02:44:51;;;;;;;2.30;2.20;;;17.20;99.90;;;;;;5051587;28;20564;-57
2022/06/09 02:47:18;;;;;;;7.37;2.77;;;17.10;99.90;;;;;;5049715;28;20556;-57
2022/06/09 02:49:45;;;;;;;4.77;1.93;;;17.10;99.90;;;;;;5051938;28;20500;-57
2022/06/09 02:52:13;;;;;;;2.40;2.20;;;17.10;99.90;;;;;;5051042;28;20457;-57
2022/06/09 02:54:39;;;;;;;2.00;1.90;;;17.10;99.90;;;;;;5051460;28;21014;-57
2022/06/09 02:57:06;;;;;;;1.93;1.83;;;17.10;99.90;;;;;;5053727;28;20518;-57
2022/06/09 02:59:33;;;;;;;2.27;2.07;;;17.00;99.90;;;;;;5052161;28;20469;-57
2022/06/09 03:01:59;;;;;;;2.30;2.20;;;17.00;99.90;;;;;;5048857;28;20500;-57
2022/06/09 03:04:26;;;;;;;2.40;2.30;;;17.00;99.90;;;;;;5051751;28;20998;-57
2022/06/09 03:06:53;;;;;;;2.40;2.27;;;17.00;99.90;;;;;;5051942;28;20493;-57
2022/06/09 03:09:21;;;;;;;4.23;2.30;;;16.90;99.90;;;;;;5050405;28;20505;-57
2022/06/09 03:11:47;;;;;;;2.80;1.93;;;16.90;99.90;;;;;;5048885;28;20493;-57
2022/06/09 03:14:14;;;;;;;2.70;2.17;;;16.90;99.90;;;;;;5052375;28;20462;-57
2022/06/09 03:16:40;;;;;;;2.57;2.40;;;16.80;99.90;;;;;;5050082;28;20521;-55
2022/06/09 03:19:07;;;;;;;3.43;2.30;;;16.80;99.90;;;;;;5050151;28;20493;-54
2022/06/09 03:21:33;;;;;;;1.97;1.87;;;16.80;99.90;;;;;;5046973;28;20563;-54
2022/06/09 03:24:00;;;;;;;3.83;2.00;;;16.70;99.90;;;;;;5047500;28;20517;-54
2022/06/09 03:26:28;;;;;;;2.00;1.90;;;16.70;99.90;;;;;;5051652;28;20477;-55
2022/06/09 03:28:54;;;;;;;2.07;1.97;;;16.60;99.90;;;;;;5048448;28;20690;-55
2022/06/09 03:31:21;;;;;;;2.10;1.97;;;16.60;99.90;;;;;;5048586;28;20485;-54
2022/06/09 03:33:49;;;;;;;3.60;1.90;;;16.70;99.90;;;;;;5049773;28;20457;-49
2022/06/09 03:36:16;;;;;;;2.20;1.90;;;16.70;99.90;;;;;;5049656;28;20478;-49
2022/06/09 03:38:43;;;;;;;3.80;1.90;;;16.60;99.90;;;;;;5047703;28;20894;-50
2022/06/09 03:41:10;;;;;;;3.37;2.63;;;16.60;99.90;;;;;;5050464;28;20486;-49
2022/06/09 03:43:38;;;;;;;1.80;1.70;;;16.50;99.90;;;;;;5050763;28;20528;-49
2022/06/09 03:46:04;;;;;;;6.43;2.27;;;16.50;99.90;;;;;;5041302;28;20481;-49
2022/06/09 03:48:31;;;;;;;2.23;1.93;;;16.50;99.90;;;;;;5050492;28;20505;-49
2022/06/09 03:50:58;;;;;;;2.23;2.13;;;16.50;99.90;;;;;;5048563;28;20486;-49
2022/06/09 03:53:24;;;;;;;9.13;2.10;;;16.50;99.90;;;;;;5049876;28;20573;-49
2022/06/09 03:55:51;;;;;;;3.23;2.17;;;16.50;99.90;;;;;;5048935;28;20574;-49
2022/06/09 03:58:17;;;;;;;1.97;1.87;;;16.50;99.90;;;;;;5049816;28;20493;-50
2022/06/09 04:00:45;;;;;;;2.27;2.17;;;16.50;99.90;;;;;;5048234;28;20561;-50
2022/06/09 04:03:12;;;;;;;2.13;2.03;;;16.50;99.90;;;;;;5046292;28;20498;-50
2022/06/09 04:05:38;;;;;;;4.27;2.33;;;16.50;99.90;;;;;;5049855;28;20943;-49
2022/06/09 04:08:06;;;;;;;2.40;2.10;;;16.50;99.90;;;;;;5050445;28;20524;-50
2022/06/09 04:10:34;;;;;;;2.92;2.00;;;16.50;99.90;;;;;;5050106;28;20495;-49
2022/06/09 04:13:01;;;;;;;5.87;1.77;;;16.50;99.90;;;;;;5050620;28;20222;-50
2022/06/09 04:15:28;;;;;;;3.17;1.93;;;16.60;99.90;;;;;;5047690;28;20457;-50
2022/06/09 04:17:56;;;;;;;2.43;2.00;;;16.60;99.90;;;;;;5045431;28;20528;-49
2022/06/09 04:20:26;;;;;;;2.70;2.07;;;16.60;99.90;;;;;;5045322;28;20527;-48
2022/06/09 04:22:53;;;;;;;1.83;1.70;;;16.60;99.90;;;;;;5045406;28;20493;-49
2022/06/09 04:25:20;;;;;;;1.50;1.50;;;16.70;99.90;;;;;;5049713;28;20518;-49
2022/06/09 04:27:47;;;;;;;6.47;2.10;;;16.70;99.90;;;;;;5051360;28;20992;-49
2022/06/09 04:30:15;;;;;;;5.10;1.80;;;16.70;99.90;;;;;;5046639;28;20975;-49
2022/06/09 04:32:42;;;;;;;1.77;1.77;;;16.80;99.90;;;;;;5048068;28;21002;-53
2022/06/09 04:35:12;;;;;;;2.27;2.07;;;16.80;99.90;;;;;;5046885;28;20489;-50
2022/06/09 04:40:23;;;;;;;7.53;2.37;;;16.80;99.90;;;;;;5043912;28;20452;-50
2022/06/09 04:42:50;;;;;;;3.23;1.60;;;16.90;99.90;;;;;;5046176;28;20535;-49
2022/06/09 04:45:16;;;;;;;7.07;2.23;;;16.90;99.90;;;;;;5045211;28;20517;-50
2022/06/09 04:47:43;;;;;;;7.30;2.20;;;16.90;99.90;;;;;;5048116;28;20517;-50
2022/06/09 04:50:12;;;;;;;2.10;2.00;;;17.00;99.90;;;;;;5048945;28;20485;-49
2022/06/09 04:52:39;;;;;;;3.17;2.27;;;17.00;99.90;;;;;;5049145;28;20466;-49
2022/06/09 04:55:07;;;;;;;4.43;2.00;;;17.00;99.90;;;;;;5044701;28;20466;-50
2022/06/09 04:57:34;;;;;;;6.97;2.33;;;17.10;99.90;;;;;;5048162;28;20489;-49
2022/06/09 05:00:02;;;;;;;1.53;1.43;;;17.10;99.90;;;;;;5049435;28;20512;-51
2022/06/09 05:02:29;;;;;;;3.90;1.90;;;17.20;99.90;;;;;;5047694;28;20847;-50
2022/06/09 05:04:56;;;;;;;11.03;2.30;;;17.30;99.90;;;;;;5044400;28;20477;-50
2022/06/09 05:07:25;;;;;;;10.23;2.20;;;17.40;99.90;;;;;;5039742;28;20486;-50
2022/06/09 05:09:51;;;;;;;2.53;2.13;;;17.50;99.90;;;;;;5046352;28;20457;-49
2022/06/09 05:12:18;;;;;;;4.17;1.80;;;17.60;99.90;;;;;;5042924;28;20461;-50
2022/06/09 05:14:45;;;;;;;3.57;1.80;;;17.70;99.90;;;;;;5046994;28;21228;-50
2022/06/09 05:17:11;;;;;;;7.17;1.80;;;17.80;99.90;;;;;;5039633;28;21053;-50
2022/06/09 05:19:38;;;;;;;5.50;1.83;;;17.90;99.90;;;;;;5049289;28;20458;-51
2022/06/09 05:22:05;;;;;;;4.37;1.53;;;18.00;99.90;;;;;;5043428;28;20520;-50
2022/06/09 05:24:33;;;;;;;4.13;1.90;;;18.00;99.90;;;;;;5048443;28;20490;-50
2022/06/09 05:26:59;;;;;;;5.17;2.30;;;18.10;99.90;;;;;;5047783;28;20478;-50
2022/06/09 05:29:26;;;;;;;4.33;2.33;;;18.20;99.90;;;;;;5048472;28;20447;-50
2022/06/09 05:31:53;;;;;;;1.83;1.53;;;18.20;99.90;;;;;;5049480;28;20457;-50
2022/06/09 05:34:19;;;;;;;3.20;1.97;;;18.20;99.90;;;;;;5050893;28;20982;-50
2022/06/09 05:36:46;;;;;;;3.17;1.50;;;18.20;99.90;;;;;;5049363;28;20485;-49
2022/06/09 05:44:54;;;;;;;3.53;1.50;;;18.30;99.90;;;;;;5021659;28;20809;-49
2022/06/09 05:47:23;;;;;;;3.30;1.43;;;18.20;99.90;;;;;;5046023;28;20492;-50
2022/06/09 05:49:51;;;;;;;1.30;1.30;;;18.20;99.90;;;;;;5045453;28;20951;-50
2022/06/09 05:52:22;;;;;;;2.73;1.60;;;18.20;99.90;;;;;;5044941;28;20457;-49
2022/06/09 05:54:50;;;;;;;1.97;1.40;;;18.20;99.90;;;;;;5049655;28;20548;-49
2022/06/09 05:57:19;;;;;;;1.87;1.40;;;18.10;99.90;;;;;;5048912;28;20488;-50
2022/06/09 05:59:45;;;;;;;3.30;1.67;;;18.10;99.90;;;;;;5044333;28;20950;-50
2022/06/09 06:02:13;;;;;;;5.70;1.80;;;18.10;99.90;;;;;;5047492;28;20560;-49
2022/06/09 06:04:40;;;;;;;5.07;1.20;;;18.00;99.90;;;;;;5050876;28;20535;-49
2022/06/09 06:07:07;;;;;;;2.53;1.43;;;18.00;99.90;;;;;;5051490;28;20482;-50
2022/06/09 06:09:33;;;;;;;1.33;1.23;;;18.00;99.90;;;;;;5050551;28;20457;-49
2022/06/09 06:12:00;;;;;;;1.50;1.40;;;18.00;99.90;;;;;;5046621;28;20547;-50
2022/06/09 06:14:28;;;;;;;5.37;1.80;;;18.00;99.90;;;;;;5052725;28;20551;-50
2022/06/09 06:16:55;;;;;;;5.90;1.97;;;18.00;99.90;;;;;;5052881;28;20525;-53
2022/06/09 06:19:22;;;;;;;1.27;1.20;;;18.00;99.90;;;;;;5052324;28;20462;-53
2022/06/09 06:21:50;;;;;;;6.13;1.97;;;18.00;99.90;;;;;;5051074;28;20480;-54
2022/06/09 06:24:18;;;;;;;3.00;1.57;;;18.00;99.90;;;;;;5054461;28;20507;-53
2022/06/09 06:26:45;;;;;;;5.43;1.80;;;18.00;99.90;;;;;;5052876;28;20477;-53
2022/06/09 06:29:15;;;;;;;5.03;1.47;;;17.90;99.90;;;;;;5050654;28;20893;-53
2022/06/09 06:31:43;;;;;;;5.20;1.80;;;17.90;99.90;;;;;;5049137;28;20454;-54
2022/06/09 06:34:10;;;;;;;3.90;2.40;;;17.90;99.90;;;;;;5049445;28;20813;-54
2022/06/09 06:36:37;;;;;;;4.33;1.37;;;18.00;99.90;;;;;;5051819;28;20523;-54
2022/06/09 06:39:04;;;;;;;3.80;2.27;;;17.90;99.90;;;;;;5058172;28;20508;-53
2022/06/09 06:41:31;;;;;;;12.53;2.50;;;17.90;99.90;;;;;;5049296;28;20469;-53
2022/06/09 06:43:58;;;;;;;2.40;2.07;;;17.90;99.90;;;;;;5044853;28;20476;-53
2022/06/09 06:46:27;;;;;;;3.67;2.47;;;18.00;99.90;;;;;;5052964;28;20486;-53
2022/06/09 06:48:55;;;;;;;6.43;2.37;;;18.00;99.90;;;;;;5053437;28;20458;-53
2022/06/09 06:51:22;;;;;;;2.20;2.00;;;18.00;99.90;;;;;;5047488;28;21228;-53
2022/06/09 06:53:49;;;;;;;3.07;2.00;;;18.00;99.90;;;;;;5052695;28;20465;-53
2022/06/09 06:56:15;;;;;;;8.00;1.90;;;18.00;99.90;;;;;;5053585;28;20481;-54
2022/06/09 06:58:42;;;;;;;6.43;2.20;;;18.10;99.90;;;;;;5050931;28;20458;-53
2022/06/09 07:01:09;;;;;;;6.60;2.80;;;18.10;99.90;;;;;;5049320;28;20468;-53
2022/06/09 07:03:36;;;;;;;2.57;2.33;;;18.20;99.90;;;;;;5051519;28;20527;-53
2022/06/09 07:06:05;;;;;;;2.50;1.93;;;18.20;99.90;;;;;;5049658;28;20544;-53
2022/06/09 07:08:32;;;;;;;3.37;2.30;;;18.10;99.90;;;;;;5049172;28;20503;-53
2022/06/09 07:10:58;;;;;;;7.10;1.90;;;18.20;99.90;;;;;;5052919;28;20508;-53
2022/06/09 07:13:26;;;;;;;4.23;1.87;;;18.20;99.90;;;;;;5049659;28;20481;-54
2022/06/09 07:15:52;;;;;;;10.43;2.20;;;18.10;99.90;;;;;;5051662;28;20547;-52
2022/06/09 07:18:19;;;;;;;2.40;1.77;;;18.10;99.90;;;;;;5053544;28;20465;-53
2022/06/09 07:20:46;;;;;;;6.10;1.90;;;18.10;99.90;;;;;;5053448;28;20466;-54
2022/06/09 07:23:14;;;;;;;6.47;2.07;;;18.10;99.90;;;;;;5050552;28;20947;-53
2022/06/09 07:25:41;;;;;;;1.70;1.60;;;18.00;99.90;;;;;;5050835;28;20483;-53
2022/06/09 07:28:08;;;;;;;3.07;1.77;;;18.00;99.90;;;;;;5050775;28;20544;-53
2022/06/09 07:30:35;;;;;;;2.67;1.60;;;18.00;99.90;;;;;;5052465;28;20462;-55
2022/06/09 07:33:02;;;;;;;4.33;1.70;;;18.00;99.90;;;;;;5050129;28;20507;-53
2022/06/09 07:35:32;;;;;;;4.23;2.00;;;18.00;99.90;;;;;;5052031;28;20519;-53
2022/06/09 07:37:59;;;;;;;1.63;1.40;;;18.00;99.90;;;;;;5050282;28;20474;-49
2022/06/09 07:40:27;;;;;;;2.60;1.80;;;18.00;99.90;;;;;;5046831;28;20509;-50
2022/06/09 07:42:53;;;;;;;6.00;2.00;;;18.00;99.90;;;;;;5050645;28;21036;-49
2022/06/09 07:45:20;;;;;;;7.60;2.30;;;18.00;99.90;;;;;;5052483;28;20485;-54
2022/06/09 07:47:48;;;;;;;3.27;1.90;;;18.00;99.90;;;;;;5051416;28;20486;-54
2022/06/09 07:50:15;;;;;;;4.43;2.20;;;18.00;99.90;;;;;;5050473;28;20470;-54
2022/06/09 07:52:43;;;;;;;5.20;2.77;;;17.90;99.90;;;;;;5049942;28;20549;-54
2022/06/09 07:55:10;;;;;;;5.27;2.20;;;17.90;99.90;;;;;;5049296;28;20473;-54
2022/06/09 07:57:38;;;;;;;5.33;2.30;;;17.90;99.90;;;;;;5051546;28;20486;-54
2022/06/09 08:00:08;;;;;;;5.63;1.80;;;17.90;99.90;;;;;;5051757;28;20507;-54
2022/06/09 08:02:35;;;;;;;5.63;2.30;;;17.90;99.90;;;;;;5040070;28;20469;-53
2022/06/09 08:05:02;;;;;;;4.93;2.27;;;17.80;99.90;;;;;;5052121;28;20581;-54
2022/06/09 08:07:28;;;;;;;4.83;2.27;;;17.80;99.90;;;;;;5052270;28;21148;-54
2022/06/09 08:09:55;;;;;;;2.67;2.03;;;17.80;99.90;;;;;;5051502;28;20462;-53
2022/06/09 08:12:22;;;;;;;3.23;1.80;;;17.70;99.90;;;;;;5051792;28;20453;-53
2022/06/09 08:14:50;;;;;;;3.67;2.20;;;17.70;99.90;;;;;;5049061;28;20536;-54
2022/06/09 08:17:16;;;;;;;5.27;2.47;;;17.70;99.90;;;;;;5047897;28;20543;-50
2022/06/09 08:19:45;;;;;;;3.13;2.27;;;17.70;99.90;;;;;;5046653;28;20884;-49
2022/06/09 08:22:12;;;;;;;4.07;2.70;;;17.70;99.90;;;;;;5048996;28;20944;-50
2022/06/09 08:24:38;;;;;;;3.50;2.00;;;17.80;99.90;;;;;;5046810;28;20458;-49
2022/06/09 08:27:05;;;;;;;4.07;2.03;;;17.70;99.90;;;;;;5048079;28;20551;-50
2022/06/09 08:29:32;;;;;;;5.40;1.93;;;17.80;99.90;;;;;;5047307;28;20454;-49
2022/06/09 08:32:00;;;;;;;8.00;2.40;;;17.80;99.90;;;;;;5048421;28;20508;-50
2022/06/09 08:34:28;;;;;;;3.87;2.57;;;17.80;99.90;;;;;;5049302;28;20462;-49
2022/06/09 08:36:55;;;;;;;7.30;2.63;;;17.80;99.90;;;;;;5050948;28;20481;-49
2022/06/09 08:39:22;;;;;;;7.17;2.83;;;17.80;99.90;;;;;;5051309;28;20458;-50
2022/06/09 08:41:59;;;;;;;6.30;2.67;;;17.80;99.90;;;;;;5050612;28;20466;-49
2022/06/09 08:44:33;;;;;;;3.33;2.27;;;17.90;99.90;;;;;;5051258;28;20458;-49
2022/06/09 08:47:12;;;;;;;2.23;2.07;;;17.80;99.90;;;;;;5051162;28;20489;-50
2022/06/09 08:49:52;;;;;;;2.50;2.10;;;17.80;99.90;;;;;;5048191;28;20462;-50
2022/06/09 08:52:27;;;;;;;86.10;69.97;;;17.80;99.90;;;;;;5049218;28;20467;-49
2022/06/09 08:54:56;;;;;;;9.73;3.47;;;17.80;99.90;;;;;;5050840;28;20462;-50
2022/06/09 08:57:28;;;;;;;5.37;3.30;;;17.80;99.90;;;;;;5049394;28;20536;-50
2022/06/09 08:59:58;;;;;;;4.20;3.80;;;17.80;99.90;;;;;;5050375;28;20465;-50
2022/06/09 09:02:35;;;;;;;3.30;2.43;;;17.80;99.90;;;;;;5042830;28;20509;-50
2022/06/09 09:05:12;;;;;;;2.93;2.63;;;17.80;99.90;;;;;;5050696;28;20454;-50
2022/06/09 09:07:43;;;;;;;5.67;2.40;;;17.70;99.90;;;;;;5049252;28;20535;-50
2022/06/09 09:10:17;;;;;;;3.10;2.33;;;17.70;99.90;;;;;;5047183;28;20466;-50
2022/06/09 09:12:49;;;;;;;7.90;2.40;;;17.70;99.90;;;;;;5044765;28;20504;-50
2022/06/09 09:15:23;;;;;;;3.13;2.57;;;17.70;99.90;;;;;;5047954;28;20980;-50
2022/06/09 09:18:00;;;;;;;4.03;2.30;;;17.70;99.90;;;;;;5045910;28;20496;-50
2022/06/09 09:20:32;;;;;;;6.40;2.50;;;17.70;99.90;;;;;;5047340;28;20458;-50
2022/06/09 09:23:08;;;;;;;3.03;2.73;;;17.80;99.90;;;;;;5045064;28;20507;-50
2022/06/09 09:25:44;;;;;;;4.03;2.23;;;17.80;99.90;;;;;;5041691;28;20477;-50
2022/06/09 09:28:17;;;;;;;4.10;2.70;;;17.80;99.90;;;;;;5042366;28;20547;-50
2022/06/09 09:30:55;;;;;;;4.00;2.90;;;17.80;99.90;;;;;;5049012;28;20949;-50
2022/06/09 09:33:23;;;;;;;3.30;2.70;;;17.90;99.90;;;;;;5047568;28;20454;-50
2022/06/09 09:35:54;;;;;;;3.00;2.60;;;17.90;99.90;;;;;;5048475;28;20458;-50
2022/06/09 09:38:23;;;;;;;2.23;2.03;;;17.90;99.90;;;;;;5046805;28;20879;-50
2022/06/09 09:40:57;;;;;;;3.13;2.80;;;18.00;99.90;;;;;;5050197;28;20472;-50
2022/06/09 09:43:33;;;;;;;3.43;2.67;;;18.10;99.90;;;;;;5043650;28;20491;-50
2022/06/09 09:46:00;;;;;;;5.63;2.73;;;18.20;99.90;;;;;;5048347;28;20473;-50
2022/06/09 09:48:33;;;;;;;7.27;4.40;;;18.30;99.90;;;;;;5049153;28;20516;-49
2022/06/09 09:51:05;;;;;;;2.50;2.30;;;18.40;99.90;;;;;;5048616;28;20515;-49
2022/06/09 09:53:34;;;;;;;3.40;3.00;;;18.50;99.90;;;;;;5051078;28;20511;-49
2022/06/09 09:56:05;;;;;;;4.87;3.07;;;18.60;99.90;;;;;;5049611;28;20943;-50
2022/06/09 09:58:38;;;;;;;4.80;4.07;;;18.60;99.90;;;;;;5051663;28;20801;-50
2022/06/09 10:01:26;;;;;;;3.90;2.90;;;18.70;99.90;;;;;;5046867;28;20466;-50
2022/06/09 10:09:32;;;;;;;3.73;2.80;;;19.00;99.90;;;;;;5049714;28;20456;-54
2022/06/09 10:12:07;;;;;;;4.70;3.70;;;19.10;99.90;;;;;;5050246;28;20437;-55
2022/06/09 10:14:50;;;;;;;3.33;3.03;;;19.20;99.90;;;;;;5043719;28;20982;-54
2022/06/09 10:17:26;;;;;;;7.37;3.60;;;19.20;99.90;;;;;;5049083;28;20516;-55
2022/06/09 10:20:00;;;;;;;4.37;3.13;;;19.30;99.90;;;;;;5043374;28;20462;-55
2022/06/09 10:22:29;;;;;;;8.33;3.80;;;19.30;99.90;;;;;;5043241;28;20516;-54
2022/06/09 10:25:00;;;;;;;7.67;3.90;;;19.40;99.90;;;;;;5049240;28;20466;-54
2022/06/09 10:27:33;;;;;;;3.77;2.63;;;19.40;22.20;;;;;;5045069;28;20493;-53
2022/06/09 10:30:05;;;;;;;6.57;4.20;;;19.50;99.90;;;;;;5049496;28;20434;-55
2022/06/09 10:32:41;;;;;;;6.90;4.13;;;19.50;29.40;;;;;;5047739;28;20956;-53
2022/06/09 10:35:17;;;;;;;7.03;3.90;;;19.50;33.30;;;;;;5048987;28;20449;-55
2022/06/09 10:37:49;;;;;;;5.50;3.70;;;19.60;32.80;;;;;;5049929;28;20482;-54
2022/06/09 10:40:21;;;;;;;4.03;3.10;;;19.50;33.30;;;;;;5048635;28;20461;-55
2022/06/09 10:42:53;;;;;;;7.43;3.70;;;19.50;31.40;;;;;;5044075;28;20458;-54
2022/06/09 10:45:25;;;;;;;8.40;3.40;;;19.40;31.20;;;;;;5049251;28;20454;-53
2022/06/09 10:56:34;;;;;;;5.40;3.83;;;19.40;31.50;;;;;;5053488;28;21089;-54
2022/06/09 10:59:08;;;;;;;5.80;3.63;;;19.40;31.70;;;;;;5053832;28;20465;-54
2022/06/09 11:01:35;;;;;;;4.13;3.53;;;19.40;29.10;;;;;;5036671;28;20583;-49
2022/06/09 11:04:07;;;;;;;6.67;3.67;;;19.40;33.70;;;;;;5050760;28;21000;-49
2022/06/09 11:06:52;;;;;;;3.40;3.07;;;19.40;30.80;;;;;;5051943;28;20554;-49
2022/06/09 11:09:27;;;;;;;4.63;3.50;;;19.50;26.30;;;;;;5052490;28;20453;-49
2022/06/09 11:12:06;;;;;;;9.07;3.67;;;19.70;32.80;;;;;;5046548;28;20461;-53
2022/06/09 11:14:50;;;;;;;6.77;4.00;;;19.80;34.50;;;;;;5052044;28;20951;-53
2022/06/09 11:17:36;;;;;;;6.90;4.17;;;19.80;42.70;;;;;;5048982;28;20481;-52
2022/06/09 11:20:12;;;;;;;8.80;4.50;;;19.80;38.80;;;;;;5052751;28;20462;-52
2022/06/09 11:22:48;;;;;;;14.50;4.80;;;19.90;42.50;;;;;;5046015;28;20958;-53
2022/06/09 11:25:38;;;;;;;5.93;4.10;;;19.80;38.10;;;;;;5042057;28;21010;-54
2022/06/09 11:28:22;;;;;;;4.50;4.10;;;19.80;38.60;;;;;;5050587;28;20478;-53
2022/06/09 11:31:07;;;;;;;6.07;4.23;;;19.80;35.50;;;;;;5048426;28;20458;-53
2022/06/09 11:33:51;;;;;;;4.23;3.70;;;19.80;48.90;;;;;;5049026;28;20462;-53
2022/06/09 11:36:24;;;;;;;3.70;2.83;;;19.80;53.80;;;;;;5051714;28;20531;-53
2022/06/09 11:39:00;;;;;;;9.27;2.97;;;19.80;44.90;;;;;;5044799;28;20483;-52
2022/06/09 11:41:36;;;;;;;4.93;3.97;;;19.90;46.50;;;;;;5049776;28;20515;-52
2022/06/09 11:44:13;;;;;;;5.93;3.27;;;19.90;59.80;;;;;;5051219;28;20454;-53
2022/06/09 11:46:42;;;;;;;4.83;2.83;;;19.90;57.40;;;;;;5045254;28;20493;-52
2022/06/09 11:49:14;;;;;;;5.33;3.20;;;19.90;58.90;;;;;;5049505;28;20515;-53
2022/06/09 11:51:42;;;;;;;7.07;3.80;;;19.90;60.40;;;;;;5052740;28;20454;-53
2022/06/09 11:54:38;;;;;;;3.40;3.10;;;19.90;57.10;;;;;;5050632;28;20491;-53
2022/06/09 11:57:28;;;;;;;3.87;3.17;;;19.90;59.50;;;;;;5053721;28;20512;-52
2022/06/09 11:59:57;;;;;;;4.27;2.93;;;19.90;63.80;;;;;;5050677;28;21013;-54
2022/06/09 12:02:55;;;;;;;4.03;2.57;;;19.90;60.50;;;;;;5051567;28;20970;-53
2022/06/09 12:05:27;;;;;;;5.67;3.70;;;19.90;55.30;;;;;;5051851;28;20462;-52
2022/06/09 12:08:22;;;;;;;11.30;4.93;;;19.90;55.40;;;;;;5050070;28;20497;-53
2022/06/09 12:11:06;;;;;;;4.53;3.60;;;19.90;56.10;;;;;;5043846;28;20454;-52
2022/06/09 12:13:40;;;;;;;7.50;3.00;;;19.90;52.10;;;;;;5050332;28;20935;-54
2022/06/09 12:16:25;;;;;;;20.80;7.67;;;19.90;54.10;;;;;;5050140;28;21019;-54
2022/06/09 12:19:01;;;;;;;8.40;3.10;;;20.00;55.50;;;;;;5043122;28;20467;-50
2022/06/09 12:21:31;;;;;;;20.20;6.40;;;20.00;47.80;;;;;;5046827;28;21028;-49
2022/06/09 12:24:21;;;;;;;12.20;5.23;;;20.10;45.30;;;;;;5051051;28;20473;-49
2022/06/09 12:26:55;;;;;;;7.73;3.10;;;20.10;56.40;;;;;;5044941;28;20498;-49
2022/06/09 12:29:43;;;;;;;7.43;4.20;;;20.20;61.50;;;;;;5050760;28;20465;-50
2022/06/09 12:32:39;;;;;;;5.43;2.90;;;20.30;56.90;;;;;;5034335;28;20455;-49
2022/06/09 12:35:25;;;;;;;8.70;5.10;;;20.30;68.50;;;;;;5052344;28;20446;-49
2022/06/09 12:37:58;;;;;;;6.13;3.40;;;20.50;70.30;;;;;;5048369;28;21046;-49
2022/06/09 12:40:32;;;;;;;6.37;2.90;;;20.50;74.40;;;;;;5046086;28;20470;-49
2022/06/09 12:43:03;;;;;;;6.80;3.83;;;20.60;76.60;;;;;;5051267;28;20457;-49
2022/06/09 12:45:32;;;;;;;8.10;3.80;;;20.60;66.50;;;;;;5050802;28;20529;-49
2022/06/09 12:48:01;;;;;;;5.20;3.50;;;20.70;73.70;;;;;;5048282;28;20953;-49
2022/06/09 12:50:39;;;;;;;7.57;3.70;;;20.70;80.80;;;;;;5050778;28;20551;-49
2022/06/09 12:53:07;;;;;;;10.60;3.40;;;20.70;84.20;;;;;;5051031;28;20460;-49
2022/06/09 12:55:37;;;;;;;3.83;3.10;;;20.70;87.20;;;;;;5047682;28;20462;-48
2022/06/09 12:58:17;;;;;;;8.80;4.20;;;20.60;86.40;;;;;;5049841;28;20470;-49
2022/06/09 13:00:48;;;;;;;5.70;3.10;;;20.60;86.60;;;;;;5049103;28;20473;-49
2022/06/09 13:03:22;;;;;;;6.27;4.10;;;20.60;96.90;;;;;;5044078;28;20856;-49
2022/06/09 13:05:50;;;;;;;10.27;4.13;;;20.50;97.00;;;;;;5051916;28;20990;-48
2022/06/09 13:08:18;;;;;;;5.07;3.17;;;20.40;98.80;;;;;;5052614;28;20485;-49
2022/06/09 13:10:53;;;;;;;8.43;4.13;;;20.30;97.30;;;;;;5050475;28;21023;-50
2022/06/09 13:13:23;;;;;;;10.97;3.53;;;20.20;95.90;;;;;;5052289;28;20480;-49
2022/06/09 13:15:56;;;;;;;5.87;4.07;;;20.10;97.50;;;;;;5051676;28;20472;-49
2022/06/09 13:18:29;;;;;;;7.03;4.13;;;20.20;99.90;;;;;;5049692;28;20466;-49
2022/06/09 13:21:06;;;;;;;8.50;3.70;;;20.10;96.20;;;;;;5047526;28;20496;-49
2022/06/09 13:23:33;;;;;;;6.07;4.20;;;20.10;96.50;;;;;;5050626;28;20885;-49
2022/06/09 13:26:01;;;;;;;13.03;4.07;;;20.10;96.70;;;;;;5048865;28;20519;-49